Time;durP1;ratioP1;P1;durP2;ratioP2;P2;SDS_P1;SDS_P2;PMS_P1;PMS_P2;Temp;Humidity;BMP_temperature;BMP_pressure;BME280_temperature;BME280_humidity;BME280_pressure;Samples;Min_cycle;Max_cycle;Signal;HPM_P1;HPM_P2
2021/03/23 00:00:23;;;;;;;21.77;9.88;;;5.60;99.90;;;;;;5067573;28;20028;-73
2021/03/23 00:02:59;;;;;;;20.70;9.30;;;5.60;99.90;;;;;;5065039;28;20031;-73
2021/03/23 00:05:25;;;;;;;17.63;9.75;;;5.60;99.90;;;;;;5067954;28;20021;-73
2021/03/23 00:07:51;;;;;;;17.65;8.68;;;5.60;99.90;;;;;;5068535;28;20036;-73
2021/03/23 00:10:23;;;;;;;23.75;9.60;;;5.70;99.90;;;;;;5068918;28;20108;-73
2021/03/23 00:12:50;;;;;;;23.17;9.50;;;5.80;99.90;;;;;;5066460;28;20036;-72
2021/03/23 00:15:16;;;;;;;20.55;10.50;;;5.80;99.90;;;;;;5069430;28;20056;-73
2021/03/23 00:17:41;;;;;;;20.92;10.27;;;5.90;99.90;;;;;;5069557;28;20024;-72
2021/03/23 00:20:10;;;;;;;23.90;10.27;;;5.90;99.90;;;;;;5066937;28;20036;-71
2021/03/23 00:22:37;;;;;;;22.05;9.63;;;5.80;99.90;;;;;;5069279;28;20475;-72
2021/03/23 00:25:06;;;;;;;21.63;10.50;;;5.90;99.90;;;;;;5068500;28;20021;-73
2021/03/23 00:27:32;;;;;;;24.05;10.82;;;5.90;99.90;;;;;;5068837;28;20040;-73
2021/03/23 00:29:58;;;;;;;18.58;9.80;;;5.90;99.90;;;;;;5069195;28;20107;-73
2021/03/23 00:32:23;;;;;;;24.40;9.88;;;6.00;99.90;;;;;;5067814;28;20107;-71
2021/03/23 00:34:50;;;;;;;24.08;10.00;;;6.10;99.90;;;;;;5063065;28;20047;-75
2021/03/23 00:37:16;;;;;;;25.75;10.85;;;6.10;99.90;;;;;;5066112;28;20025;-72
2021/03/23 00:39:42;;;;;;;26.58;11.10;;;6.10;99.90;;;;;;5067647;28;20103;-72
2021/03/23 00:42:08;;;;;;;26.38;11.15;;;6.20;99.90;;;;;;5067780;28;20125;-73
2021/03/23 00:44:35;;;;;;;19.90;10.35;;;6.20;99.90;;;;;;5067813;28;20016;-74
2021/03/23 00:47:01;;;;;;;22.92;10.70;;;6.30;99.90;;;;;;5067902;28;20016;-75
2021/03/23 00:49:26;;;;;;;20.15;10.90;;;6.40;99.90;;;;;;5068282;28;20036;-73
2021/03/23 00:51:56;;;;;;;18.45;9.70;;;6.40;99.90;;;;;;5067199;28;20012;-75
2021/03/23 00:54:21;;;;;;;27.80;11.30;;;6.40;99.90;;;;;;5056090;28;20487;-75
2021/03/23 00:56:47;;;;;;;30.05;11.45;;;6.40;99.90;;;;;;5066280;28;20032;-75
2021/03/23 00:59:13;;;;;;;21.48;11.55;;;6.40;99.90;;;;;;5066663;28;20027;-74
2021/03/23 01:01:39;;;;;;;25.27;11.02;;;6.40;99.90;;;;;;5068279;28;20025;-73
2021/03/23 01:04:05;;;;;;;24.20;10.88;;;6.40;99.90;;;;;;5066997;28;20024;-73
2021/03/23 01:06:31;;;;;;;23.55;11.05;;;6.40;99.90;;;;;;5068314;28;20021;-72
2021/03/23 01:08:56;;;;;;;28.58;10.63;;;6.40;99.90;;;;;;5064593;28;20029;-73
2021/03/23 01:11:22;;;;;;;25.98;10.70;;;6.40;99.90;;;;;;5069594;28;20096;-77
2021/03/23 01:13:49;;;;;;;27.95;11.25;;;6.40;99.90;;;;;;5066054;28;20658;-75
2021/03/23 01:16:14;;;;;;;23.75;11.40;;;6.50;99.90;;;;;;5068110;28;20086;-73
2021/03/23 01:18:40;;;;;;;27.45;11.50;;;6.50;99.90;;;;;;5067384;28;20101;-74
2021/03/23 01:21:06;;;;;;;29.85;12.00;;;6.60;99.90;;;;;;5067076;28;20033;-73
2021/03/23 01:23:32;;;;;;;29.25;10.82;;;6.60;99.90;;;;;;5066591;28;20033;-72
2021/03/23 01:25:58;;;;;;;33.40;12.35;;;6.60;99.90;;;;;;5067615;28;20079;-73
2021/03/23 01:28:24;;;;;;;25.65;11.73;;;6.60;99.90;;;;;;5067095;28;20108;-72
2021/03/23 01:30:49;;;;;;;24.52;12.20;;;6.60;99.90;;;;;;5067108;28;20108;-73
2021/03/23 01:33:15;;;;;;;27.63;11.25;;;6.60;99.90;;;;;;5068055;28;20023;-73
2021/03/23 01:35:40;;;;;;;28.90;11.93;;;6.50;99.90;;;;;;5065038;28;20115;-73
2021/03/23 01:38:07;;;;;;;27.50;12.25;;;6.60;99.90;;;;;;5067058;28;20052;-73
2021/03/23 01:40:34;;;;;;;28.20;13.38;;;6.60;99.90;;;;;;5065355;28;20032;-73
2021/03/23 01:43:05;;;;;;;26.55;13.00;;;6.60;99.90;;;;;;5060200;28;20017;-72
2021/03/23 01:45:39;;;;;;;26.73;12.43;;;6.60;99.90;;;;;;5062141;28;20050;-72
2021/03/23 01:48:27;;;;;;;27.83;13.02;;;6.60;99.90;;;;;;5065295;28;20040;-73
2021/03/23 01:50:57;;;;;;;28.15;13.52;;;6.60;99.90;;;;;;5054891;28;20112;-73
2021/03/23 01:53:33;;;;;;;30.63;12.98;;;6.60;99.90;;;;;;5065714;28;20046;-72
2021/03/23 01:55:58;;;;;;;32.10;14.45;;;6.50;99.90;;;;;;5066467;28;20053;-74
2021/03/23 01:58:25;;;;;;;34.60;14.75;;;6.60;99.90;;;;;;5053779;28;20405;-72
2021/03/23 02:00:51;;;;;;;30.20;13.98;;;6.60;99.90;;;;;;5066433;28;20036;-72
2021/03/23 02:03:19;;;;;;;31.55;14.20;;;6.60;99.90;;;;;;5065978;28;20043;-72
2021/03/23 02:05:56;;;;;;;33.53;15.68;;;6.50;99.90;;;;;;5055339;28;20017;-72
2021/03/23 02:08:22;;;;;;;26.48;14.60;;;6.50;99.90;;;;;;5056138;28;20024;-73
2021/03/23 02:10:48;;;;;;;32.25;15.32;;;6.60;99.90;;;;;;5066225;28;20028;-73
2021/03/23 02:13:15;;;;;;;35.22;16.20;;;6.50;99.90;;;;;;5067736;28;20032;-73
2021/03/23 02:15:41;;;;;;;33.83;15.43;;;6.50;99.90;;;;;;5061697;28;20024;-72
2021/03/23 02:18:21;;;;;;;37.55;15.15;;;6.60;99.90;;;;;;5067465;28;20021;-73
2021/03/23 02:21:03;;;;;;;34.05;15.70;;;6.60;99.90;;;;;;5067143;28;20124;-73
2021/03/23 02:23:33;;;;;;;34.08;17.15;;;6.70;99.90;;;;;;5066142;28;20013;-72
2021/03/23 02:26:00;;;;;;;41.83;17.60;;;6.60;99.90;;;;;;5067521;28;20056;-72
2021/03/23 02:28:26;;;;;;;40.10;17.10;;;6.60;99.90;;;;;;5068598;28;20111;-74
2021/03/23 02:30:52;;;;;;;36.05;17.33;;;6.60;99.90;;;;;;5067689;28;20024;-74
2021/03/23 02:33:18;;;;;;;43.13;18.23;;;6.60;99.90;;;;;;5067753;28;20033;-73
2021/03/23 02:35:44;;;;;;;36.75;17.08;;;6.50;99.90;;;;;;5066855;28;20549;-73
2021/03/23 02:38:11;;;;;;;40.78;17.55;;;6.50;99.90;;;;;;5067349;28;20074;-72
2021/03/23 02:40:41;;;;;;;40.67;18.38;;;6.60;99.90;;;;;;5068303;28;20096;-74
2021/03/23 02:43:06;;;;;;;43.33;18.17;;;6.60;99.90;;;;;;5068402;28;20484;-72
2021/03/23 02:45:32;;;;;;;37.83;18.60;;;6.50;99.90;;;;;;5067224;28;20028;-74
2021/03/23 02:47:57;;;;;;;48.78;19.60;;;6.60;99.90;;;;;;5066625;28;20133;-72
2021/03/23 02:50:23;;;;;;;42.40;18.30;;;6.60;99.90;;;;;;5064041;28;20115;-72
2021/03/23 02:52:49;;;;;;;48.35;19.38;;;6.60;99.90;;;;;;5061765;28;20028;-72
2021/03/23 02:55:15;;;;;;;42.20;19.25;;;6.50;99.90;;;;;;5059656;28;20074;-73
2021/03/23 02:57:41;;;;;;;38.92;18.33;;;6.50;99.90;;;;;;5064317;28;20037;-72
2021/03/23 03:00:09;;;;;;;41.28;19.35;;;6.50;99.90;;;;;;5062727;28;20412;-73
2021/03/23 03:02:34;;;;;;;40.75;19.40;;;6.50;99.90;;;;;;5064534;28;20028;-73
2021/03/23 03:05:01;;;;;;;41.17;21.13;;;6.50;99.90;;;;;;5061071;28;20031;-74
2021/03/23 03:07:27;;;;;;;39.25;19.73;;;6.40;99.90;;;;;;5066195;28;20037;-71
2021/03/23 03:09:52;;;;;;;48.20;22.48;;;6.30;99.90;;;;;;5068852;28;20763;-74
2021/03/23 03:12:18;;;;;;;50.30;21.63;;;6.40;99.90;;;;;;5069740;28;20095;-73
2021/03/23 03:14:47;;;;;;;47.92;21.90;;;6.40;99.90;;;;;;5067923;28;20043;-74
2021/03/23 03:17:19;;;;;;;49.83;22.73;;;6.40;99.90;;;;;;5069972;28;20016;-72
2021/03/23 03:19:54;;;;;;;49.88;22.17;;;6.40;99.90;;;;;;5067575;28;20409;-74
2021/03/23 03:22:30;;;;;;;50.53;22.67;;;6.40;99.90;;;;;;5067321;28;20036;-72
2021/03/23 03:25:01;;;;;;;54.22;22.85;;;6.40;99.90;;;;;;5070487;28;20028;-75
2021/03/23 03:27:36;;;;;;;56.38;24.05;;;6.40;99.90;;;;;;5067645;28;20018;-72
2021/03/23 03:30:14;;;;;;;50.35;22.85;;;6.50;99.90;;;;;;5072685;28;20074;-71
2021/03/23 03:32:40;;;;;;;49.00;23.88;;;6.50;99.90;;;;;;5061483;28;20154;-72
2021/03/23 03:35:15;;;;;;;50.42;23.08;;;6.60;99.90;;;;;;5072036;28;20025;-73
2021/03/23 03:37:41;;;;;;;52.53;24.45;;;6.50;99.90;;;;;;5060455;28;20041;-76
2021/03/23 03:40:20;;;;;;;43.83;22.15;;;6.50;99.90;;;;;;5074118;28;20038;-74
2021/03/23 03:42:49;;;;;;;45.83;22.65;;;6.50;99.90;;;;;;5071871;28;20037;-75
2021/03/23 03:45:18;;;;;;;44.45;23.17;;;6.60;99.90;;;;;;5073582;28;20036;-73
2021/03/23 03:47:55;;;;;;;45.05;21.98;;;6.60;99.90;;;;;;5071440;28;20097;-74
2021/03/23 03:50:35;;;;;;;55.35;24.10;;;6.60;99.90;;;;;;5069148;28;20021;-72
2021/03/23 03:53:04;;;;;;;54.97;24.17;;;6.50;99.90;;;;;;5072367;28;20024;-72
2021/03/23 03:55:40;;;;;;;50.75;25.08;;;6.40;99.90;;;;;;5070779;28;20025;-73
2021/03/23 03:58:10;;;;;;;56.00;23.83;;;6.40;99.90;;;;;;5073404;28;20021;-72
2021/03/23 04:00:45;;;;;;;47.60;23.27;;;6.40;99.90;;;;;;5072400;28;20028;-75
2021/03/23 04:03:25;;;;;;;50.05;23.50;;;6.40;99.90;;;;;;5072520;28;20029;-75
2021/03/23 04:05:54;;;;;;;53.60;24.38;;;6.30;99.90;;;;;;5055191;28;20029;-72
2021/03/23 04:08:23;;;;;;;56.30;23.65;;;6.30;99.90;;;;;;5071238;28;20018;-73
2021/03/23 04:10:49;;;;;;;53.47;22.35;;;6.40;99.90;;;;;;5070414;28;20492;-71
2021/03/23 04:13:16;;;;;;;49.65;22.17;;;6.40;99.90;;;;;;5069833;28;20041;-72
2021/03/23 04:15:46;;;;;;;46.78;22.80;;;6.40;99.90;;;;;;5071005;28;20448;-73
2021/03/23 04:18:14;;;;;;;48.45;24.42;;;6.40;99.90;;;;;;5070472;28;20627;-72
2021/03/23 04:20:40;;;;;;;46.92;21.52;;;6.40;99.90;;;;;;5067625;28;20048;-73
2021/03/23 04:23:08;;;;;;;58.88;24.38;;;6.40;99.90;;;;;;5068669;28;20017;-72
2021/03/23 04:25:34;;;;;;;49.60;23.15;;;6.40;99.90;;;;;;5069186;28;20035;-72
2021/03/23 04:28:00;;;;;;;43.35;23.13;;;6.40;99.90;;;;;;5071475;28;20024;-75
2021/03/23 04:30:27;;;;;;;45.50;22.10;;;6.50;99.90;;;;;;5077747;28;20035;-75
2021/03/23 04:32:55;;;;;;;50.90;22.55;;;6.50;99.90;;;;;;5078769;28;20060;-74
2021/03/23 04:35:28;;;;;;;54.13;23.48;;;6.60;99.90;;;;;;5076241;28;20135;-73
2021/03/23 04:37:55;;;;;;;52.22;24.27;;;6.40;99.90;;;;;;5077062;28;20093;-74
2021/03/23 04:40:21;;;;;;;49.45;23.55;;;6.40;99.90;;;;;;5066212;28;20037;-74
2021/03/23 04:42:47;;;;;;;58.78;25.45;;;6.40;99.90;;;;;;5070136;28;20480;-72
2021/03/23 04:45:14;;;;;;;53.92;24.55;;;6.30;99.90;;;;;;5066883;28;20033;-72
2021/03/23 04:47:39;;;;;;;67.45;27.20;;;6.30;99.90;;;;;;5068050;28;20098;-72
2021/03/23 04:50:06;;;;;;;55.47;24.92;;;6.30;99.90;;;;;;5068241;28;20372;-73
2021/03/23 04:52:31;;;;;;;67.05;28.20;;;6.40;99.90;;;;;;5068450;28;20047;-73
2021/03/23 04:54:57;;;;;;;80.13;30.88;;;6.30;99.90;;;;;;5068582;28;20460;-73
2021/03/23 04:57:23;;;;;;;75.05;32.00;;;6.20;99.90;;;;;;5068319;28;20378;-74
2021/03/23 04:59:48;;;;;;;86.60;34.25;;;6.10;99.90;;;;;;5068829;28;20097;-71
2021/03/23 05:02:14;;;;;;;83.75;33.60;;;6.20;99.90;;;;;;5067264;28;20028;-72
2021/03/23 05:04:41;;;;;;;85.00;32.90;;;6.10;99.90;;;;;;5066268;28;20013;-72
2021/03/23 05:07:07;;;;;;;84.07;33.95;;;6.10;99.90;;;;;;5068588;28;20021;-74
2021/03/23 05:09:33;;;;;;;86.55;35.10;;;6.10;99.90;;;;;;5065046;28;20050;-74
2021/03/23 05:11:58;;;;;;;101.18;37.38;;;6.20;99.90;;;;;;5065976;28;20460;-73
2021/03/23 05:14:24;;;;;;;94.90;37.45;;;6.10;99.90;;;;;;5066509;28;20097;-73
2021/03/23 05:16:49;;;;;;;87.93;36.15;;;6.10;99.90;;;;;;5066641;28;20047;-72
2021/03/23 05:19:15;;;;;;;97.45;36.50;;;6.20;99.90;;;;;;5066656;28;20111;-75
2021/03/23 05:21:41;;;;;;;95.85;37.38;;;6.20;99.90;;;;;;5066882;28;20028;-73
2021/03/23 05:24:12;;;;;;;103.28;36.50;;;6.10;99.90;;;;;;5066029;28;20043;-72
2021/03/23 05:26:39;;;;;;;101.40;37.38;;;6.20;99.90;;;;;;5067129;28;20020;-73
2021/03/23 05:29:04;;;;;;;99.65;39.67;;;6.20;99.90;;;;;;5067967;28;20032;-73
2021/03/23 05:31:32;;;;;;;107.03;38.60;;;6.10;99.90;;;;;;5060452;28;20491;-74
2021/03/23 05:33:58;;;;;;;114.82;37.78;;;6.00;99.90;;;;;;5063768;28;20341;-74
2021/03/23 05:36:25;;;;;;;112.53;40.03;;;6.00;99.90;;;;;;5063504;28;20515;-75
2021/03/23 05:38:51;;;;;;;110.88;40.38;;;6.00;99.90;;;;;;5065779;28;20024;-71
2021/03/23 05:41:34;;;;;;;116.47;39.60;;;6.00;99.90;;;;;;5067322;28;20035;-73
2021/03/23 05:44:16;;;;;;;108.82;40.28;;;6.00;99.90;;;;;;5065484;28;20021;-72
2021/03/23 05:46:42;;;;;;;114.47;40.90;;;5.90;99.90;;;;;;5065468;28;20546;-72
2021/03/23 05:49:26;;;;;;;116.80;40.53;;;6.00;99.90;;;;;;5066246;28;20648;-72
2021/03/23 05:52:12;;;;;;;114.28;40.40;;;6.00;99.90;;;;;;5060224;28;20389;-73
2021/03/23 05:54:52;;;;;;;123.22;39.35;;;6.00;99.90;;;;;;5065712;28;20028;-72
2021/03/23 05:57:37;;;;;;;122.40;42.13;;;6.00;99.90;;;;;;5066992;28;20385;-72
2021/03/23 06:00:35;;;;;;;98.13;38.55;;;6.00;99.90;;;;;;5065556;28;20116;-72
2021/03/23 06:03:28;;;;;;;105.70;40.20;;;6.10;99.90;;;;;;5064919;28;20033;-73
2021/03/23 06:06:19;;;;;;;116.35;42.00;;;6.10;99.90;;;;;;5065705;28;20174;-73
2021/03/23 06:08:50;;;;;;;122.57;41.72;;;6.00;99.90;;;;;;5061517;28;20529;-73
2021/03/23 06:11:43;;;;;;;110.30;39.05;;;6.00;99.90;;;;;;5060120;28;20020;-71
2021/03/23 06:14:30;;;;;;;110.35;41.45;;;6.00;99.90;;;;;;5063460;28;20025;-72
2021/03/23 06:17:11;;;;;;;105.75;39.53;;;6.10;99.90;;;;;;5064536;28;20095;-73
2021/03/23 06:19:55;;;;;;;114.13;41.00;;;6.00;99.90;;;;;;5079598;28;20025;-72
2021/03/23 06:22:47;;;;;;;140.00;44.85;;;6.00;99.90;;;;;;5064709;28;20035;-72
2021/03/23 06:25:34;;;;;;;143.68;43.88;;;6.00;99.90;;;;;;5066022;28;20031;-75
2021/03/23 06:28:24;;;;;;;130.98;42.95;;;6.00;99.90;;;;;;5067110;28;20036;-74
2021/03/23 06:31:03;;;;;;;127.10;42.80;;;6.10;99.90;;;;;;5068018;28;20033;-72
2021/03/23 06:33:31;;;;;;;130.15;43.60;;;6.10;99.90;;;;;;5066199;28;20112;-74
2021/03/23 06:36:00;;;;;;;148.90;45.05;;;6.10;99.90;;;;;;5067248;28;20016;-72
2021/03/23 06:38:34;;;;;;;130.77;43.50;;;6.10;99.90;;;;;;5066383;28;20224;-72
2021/03/23 06:41:23;;;;;;;138.23;43.83;;;6.00;99.90;;;;;;5067004;28;20496;-72
2021/03/23 06:43:55;;;;;;;133.98;42.70;;;6.10;99.90;;;;;;5071324;28;20029;-75
2021/03/23 06:46:32;;;;;;;134.40;42.58;;;6.10;99.90;;;;;;5072837;28;20020;-73
2021/03/23 06:49:13;;;;;;;144.20;42.60;;;6.10;99.90;;;;;;5071994;28;20032;-72
2021/03/23 06:52:00;;;;;;;125.28;39.13;;;6.10;99.90;;;;;;5053240;28;20029;-72
2021/03/23 06:54:31;;;;;;;140.75;42.00;;;6.10;99.90;;;;;;5070545;28;20480;-72
2021/03/23 06:57:10;;;;;;;146.27;41.60;;;6.10;99.90;;;;;;5069476;28;20581;-71
2021/03/23 06:59:54;;;;;;;146.95;43.33;;;6.10;99.90;;;;;;5060047;28;20020;-73
2021/03/23 07:02:49;;;;;;;138.45;42.13;;;6.20;99.90;;;;;;5069776;28;20020;-73
2021/03/23 07:05:31;;;;;;;141.35;40.25;;;6.20;99.90;;;;;;5069359;28;20060;-74
2021/03/23 07:07:59;;;;;;;138.07;40.13;;;6.20;99.90;;;;;;5071076;28;20211;-73
2021/03/23 07:10:29;;;;;;;133.13;41.83;;;6.20;99.90;;;;;;5073049;28;20028;-75
2021/03/23 07:12:55;;;;;;;156.73;42.78;;;6.20;99.90;;;;;;5070608;28;20028;-73
2021/03/23 07:15:28;;;;;;;138.75;42.33;;;6.20;99.90;;;;;;5072399;28;20490;-72
2021/03/23 07:18:08;;;;;;;133.90;40.20;;;6.20;99.90;;;;;;5070592;28;20044;-74
2021/03/23 07:20:34;;;;;;;137.65;40.15;;;6.20;99.90;;;;;;5064148;28;20488;-74
2021/03/23 07:23:21;;;;;;;153.40;41.10;;;6.30;99.90;;;;;;5074540;28;20024;-75
2021/03/23 07:25:47;;;;;;;148.98;41.55;;;6.30;99.90;;;;;;5064716;28;20029;-72
2021/03/23 07:28:37;;;;;;;123.60;40.63;;;6.30;99.90;;;;;;5073549;28;20015;-74
2021/03/23 07:31:13;;;;;;;144.05;41.08;;;6.30;99.90;;;;;;5075465;28;20025;-73
2021/03/23 07:33:54;;;;;;;134.77;39.75;;;6.30;99.90;;;;;;5069649;28;20075;-74
2021/03/23 07:36:28;;;;;;;129.30;39.53;;;6.40;99.90;;;;;;5066994;28;20123;-72
2021/03/23 07:39:22;;;;;;;135.57;39.70;;;6.40;99.90;;;;;;5066947;28;20040;-74
2021/03/23 07:41:55;;;;;;;146.65;40.67;;;6.40;99.90;;;;;;5057556;28;20484;-74
2021/03/23 07:44:45;;;;;;;129.95;39.65;;;6.50;99.90;;;;;;5072517;28;20443;-73
2021/03/23 07:47:33;;;;;;;147.93;40.72;;;6.50;99.90;;;;;;5058744;28;20143;-73
2021/03/23 07:50:03;;;;;;;134.65;38.17;;;6.50;99.90;;;;;;5068516;28;20037;-73
2021/03/23 07:52:37;;;;;;;122.97;38.45;;;6.50;99.90;;;;;;5061773;28;20028;-72
2021/03/23 07:55:13;;;;;;;121.82;40.47;;;6.60;99.90;;;;;;5070733;28;20221;-74
2021/03/23 07:58:14;;;;;;;108.57;35.40;;;6.70;99.90;;;;;;5071957;28;20474;-73
2021/03/23 08:01:17;;;;;;;124.13;36.65;;;6.80;99.90;;;;;;5067750;28;20029;-74
2021/03/23 08:04:06;;;;;;;119.38;37.70;;;6.80;99.90;;;;;;5068244;28;20112;-74
2021/03/23 08:06:41;;;;;;;116.43;39.13;;;6.80;99.90;;;;;;5071343;28;20105;-74
2021/03/23 08:09:32;;;;;;;133.30;39.65;;;6.80;99.90;;;;;;5069706;28;20473;-73
2021/03/23 08:12:29;;;;;;;119.25;36.65;;;6.80;99.90;;;;;;5071019;28;20028;-73
2021/03/23 08:15:31;;;;;;;114.30;37.70;;;6.90;99.90;;;;;;5071076;28;20173;-74
2021/03/23 08:18:27;;;;;;;111.05;36.03;;;6.90;99.90;;;;;;5069682;28;20428;-73
2021/03/23 08:21:16;;;;;;;118.22;38.50;;;6.80;99.90;;;;;;5070387;28;20470;-74
2021/03/23 08:24:40;;;;;;;112.65;39.28;;;6.90;99.90;;;;;;5061109;28;20488;-75
2021/03/23 08:27:25;;;;;;;110.72;38.17;;;6.90;99.90;;;;;;5040121;28;20058;-73
2021/03/23 08:30:05;;;;;;;114.35;36.08;;;6.90;99.90;;;;;;5069597;28;20024;-74
2021/03/23 08:32:54;;;;;;;104.78;36.33;;;7.00;99.90;;;;;;5070538;28;20048;-72
2021/03/23 08:35:53;;;;;;;110.32;37.60;;;7.00;99.90;;;;;;5067796;28;20060;-74
2021/03/23 08:38:47;;;;;;;106.90;37.13;;;7.10;99.90;;;;;;5070323;28;20024;-73
2021/03/23 08:41:39;;;;;;;101.28;34.92;;;7.20;99.90;;;;;;5071080;28;20024;-73
2021/03/23 08:44:13;;;;;;;105.53;36.15;;;7.20;99.90;;;;;;5059924;28;20020;-73
2021/03/23 08:46:39;;;;;;;104.47;35.25;;;7.20;99.90;;;;;;5069248;28;20020;-74
2021/03/23 08:49:17;;;;;;;108.32;37.15;;;7.20;99.90;;;;;;5070326;28;20032;-73
2021/03/23 08:51:47;;;;;;;106.35;37.00;;;7.20;99.90;;;;;;5052875;28;20017;-75
2021/03/23 08:54:43;;;;;;;103.97;36.00;;;7.20;99.90;;;;;;5069824;28;20025;-72
2021/03/23 08:57:10;;;;;;;98.63;35.97;;;7.30;99.90;;;;;;5070802;28;20456;-73
2021/03/23 08:59:36;;;;;;;98.15;36.05;;;7.20;99.90;;;;;;5070246;28;20344;-74
2021/03/23 09:02:28;;;;;;;84.65;33.88;;;7.30;99.90;;;;;;5069076;28;20028;-75
2021/03/23 09:04:55;;;;;;;93.80;34.20;;;7.40;99.90;;;;;;5063556;28;20119;-74
2021/03/23 09:07:29;;;;;;;101.95;35.08;;;7.50;99.90;;;;;;5068810;28;20320;-74
2021/03/23 09:09:55;;;;;;;98.75;35.75;;;7.50;99.90;;;;;;5069370;28;20030;-74
2021/03/23 09:12:45;;;;;;;102.45;35.60;;;7.50;99.90;;;;;;5067976;28;20020;-72
2021/03/23 09:15:17;;;;;;;100.25;35.58;;;7.50;99.90;;;;;;5061062;28;20036;-74
2021/03/23 09:18:06;;;;;;;110.35;35.45;;;7.40;99.90;;;;;;5069676;28;20039;-74
2021/03/23 09:20:32;;;;;;;95.13;33.78;;;7.50;99.90;;;;;;5068125;28;20246;-74
2021/03/23 09:23:20;;;;;;;103.28;35.33;;;7.50;99.90;;;;;;5068570;28;20039;-74
2021/03/23 09:25:46;;;;;;;104.55;36.05;;;7.50;99.90;;;;;;5069222;28;20121;-73
2021/03/23 09:28:34;;;;;;;98.50;33.95;;;7.50;99.90;;;;;;5068171;28;20432;-73
2021/03/23 09:31:01;;;;;;;99.35;35.55;;;7.60;99.90;;;;;;5069212;28;20165;-72
2021/03/23 09:33:28;;;;;;;101.07;35.00;;;7.60;99.90;;;;;;5067897;28;20020;-74
2021/03/23 09:36:18;;;;;;;108.82;37.63;;;7.60;99.90;;;;;;5068294;28;20119;-75
2021/03/23 09:38:47;;;;;;;100.97;34.55;;;7.50;99.90;;;;;;5069764;28;20156;-72
2021/03/23 09:41:22;;;;;;;97.18;35.88;;;7.50;99.90;;;;;;5069304;28;20021;-73
2021/03/23 09:44:18;;;;;;;105.50;36.15;;;7.60;99.90;;;;;;5069111;28;20027;-73
2021/03/23 09:46:56;;;;;;;90.32;34.17;;;7.80;99.90;;;;;;5068726;28;20354;-75
2021/03/23 09:49:43;;;;;;;89.38;36.38;;;7.80;99.90;;;;;;5069175;28;20157;-78
2021/03/23 09:52:30;;;;;;;96.25;36.25;;;7.90;99.90;;;;;;5055955;28;20020;-74
2021/03/23 09:55:00;;;;;;;100.72;37.10;;;7.90;99.90;;;;;;5068522;28;20025;-75
2021/03/23 09:57:28;;;;;;;101.90;36.17;;;7.90;99.90;;;;;;5068742;28;20056;-75
2021/03/23 09:59:57;;;;;;;93.45;36.22;;;8.00;99.90;;;;;;5067270;28;20027;-75
2021/03/23 10:02:36;;;;;;;102.10;36.17;;;8.00;99.90;;;;;;5054552;28;20071;-73
2021/03/23 10:05:26;;;;;;;105.00;35.20;;;8.10;99.90;;;;;;5069173;28;20522;-74
2021/03/23 10:07:54;;;;;;;110.55;35.85;;;8.10;99.90;;;;;;5067766;28;20028;-74
2021/03/23 10:10:27;;;;;;;90.70;35.42;;;8.10;99.90;;;;;;5069252;28;20024;-73
2021/03/23 10:12:55;;;;;;;98.40;35.33;;;8.00;99.90;;;;;;5068452;28;20103;-74
2021/03/23 10:15:32;;;;;;;94.18;35.47;;;8.00;99.90;;;;;;5069668;28;20100;-73
2021/03/23 10:18:09;;;;;;;90.53;34.95;;;8.20;99.90;;;;;;5067391;28;20021;-74
2021/03/23 10:20:34;;;;;;;101.18;35.10;;;8.20;99.90;;;;;;5068558;28;20559;-75
2021/03/23 10:23:01;;;;;;;90.72;34.70;;;8.20;99.90;;;;;;5068381;28;20012;-73
2021/03/23 10:25:27;;;;;;;98.05;37.08;;;8.20;99.90;;;;;;5069620;28;20085;-74
2021/03/23 10:27:53;;;;;;;98.70;37.67;;;8.20;99.90;;;;;;5066903;28;20025;-73
2021/03/23 10:30:29;;;;;;;91.82;35.67;;;8.40;99.90;;;;;;5069473;28;20476;-75
2021/03/23 10:32:56;;;;;;;90.53;36.20;;;8.30;99.90;;;;;;5066346;28;20032;-74
2021/03/23 10:35:28;;;;;;;97.85;36.55;;;8.30;99.90;;;;;;5069692;28;20396;-73
2021/03/23 10:38:18;;;;;;;89.55;35.83;;;8.30;99.90;;;;;;5067934;28;20608;-73
2021/03/23 10:40:46;;;;;;;94.32;38.13;;;8.40;99.90;;;;;;5068811;28;20040;-75
2021/03/23 10:43:29;;;;;;;93.70;37.65;;;8.50;99.90;;;;;;5054751;28;20021;-72
2021/03/23 10:45:56;;;;;;;86.63;37.83;;;8.50;99.90;;;;;;5058820;28;20036;-74
2021/03/23 10:48:25;;;;;;;80.80;35.85;;;8.60;99.90;;;;;;5064860;28;20244;-75
2021/03/23 10:51:11;;;;;;;88.30;35.33;;;8.60;99.90;;;;;;5068181;28;20036;-74
2021/03/23 10:53:37;;;;;;;92.07;37.50;;;8.50;99.90;;;;;;5068111;28;20025;-72
2021/03/23 10:56:20;;;;;;;81.97;36.28;;;8.50;99.90;;;;;;5068686;28;20031;-72
2021/03/23 10:59:03;;;;;;;;;;;8.40;99.90;;;;;;5067521;28;20096;-73
2021/03/23 11:01:30;;;;;;;97.40;36.83;;;8.50;99.90;;;;;;5068230;28;19905;-74
2021/03/23 11:04:13;;;;;;;90.57;35.72;;;8.50;99.90;;;;;;5066920;28;20683;-74
2021/03/23 11:06:40;;;;;;;90.35;37.10;;;8.60;99.90;;;;;;5054152;28;20032;-73
2021/03/23 11:09:10;;;;;;;98.90;35.72;;;8.60;99.90;;;;;;5070841;28;20031;-74
2021/03/23 11:11:36;;;;;;;84.88;37.78;;;8.60;99.90;;;;;;5069010;28;20021;-73
2021/03/23 11:14:02;;;;;;;100.50;38.60;;;8.60;99.90;;;;;;5056757;28;20028;-74
2021/03/23 11:16:31;;;;;;;88.68;34.85;;;8.60;99.90;;;;;;5067586;28;20058;-74
2021/03/23 11:19:00;;;;;;;87.78;34.63;;;8.60;99.90;;;;;;5069389;28;20096;-75
2021/03/23 11:21:31;;;;;;;89.55;36.55;;;8.80;99.90;;;;;;5069410;28;20048;-74
2021/03/23 11:23:57;;;;;;;86.68;36.22;;;8.70;99.90;;;;;;5069679;28;20021;-75
2021/03/23 11:26:29;;;;;;;84.22;35.08;;;8.60;99.90;;;;;;5069442;28;20020;-73
2021/03/23 11:28:57;;;;;;;88.28;37.30;;;8.70;99.90;;;;;;5059075;28;20593;-73
2021/03/23 11:31:26;;;;;;;87.07;35.90;;;8.80;99.90;;;;;;5071812;28;20048;-74
2021/03/23 11:33:54;;;;;;;78.05;35.58;;;8.70;99.90;;;;;;5073352;28;20392;-73
2021/03/23 11:36:20;;;;;;;75.65;34.45;;;8.70;99.90;;;;;;5073819;28;20033;-74
2021/03/23 11:38:46;;;;;;;78.30;34.15;;;8.70;99.90;;;;;;5075020;28;20036;-74
2021/03/23 11:41:24;;;;;;;77.47;32.75;;;8.70;99.90;;;;;;5072852;28;20021;-72
2021/03/23 11:43:59;;;;;;;75.10;34.97;;;8.70;99.90;;;;;;5061154;28;20046;-74
2021/03/23 11:46:38;;;;;;;81.15;34.78;;;8.70;99.90;;;;;;5072542;28;20212;-73
2021/03/23 11:49:10;;;;;;;68.82;33.70;;;8.80;99.90;;;;;;5075654;28;20064;-75
2021/03/23 11:51:54;;;;;;;63.90;30.45;;;8.90;99.90;;;;;;5071345;28;20410;-75
2021/03/23 11:54:20;;;;;;;62.38;29.67;;;8.90;99.90;;;;;;5072800;28;20040;-73
2021/03/23 11:56:45;;;;;;;65.28;30.65;;;8.80;99.90;;;;;;5069969;28;20032;-73
2021/03/23 11:59:11;;;;;;;68.25;28.95;;;8.80;99.90;;;;;;5070291;28;20059;-74
2021/03/23 12:01:37;;;;;;;61.13;28.27;;;8.90;99.90;;;;;;5072389;28;20016;-75
2021/03/23 12:04:04;;;;;;;56.42;27.65;;;9.10;99.90;;;;;;5071761;28;20104;-74
2021/03/23 12:06:42;;;;;;;63.63;28.48;;;9.20;99.90;;;;;;5072377;28;20047;-72
2021/03/23 12:09:21;;;;;;;46.78;24.30;;;9.40;99.90;;;;;;5071090;28;20035;-74
2021/03/23 12:12:03;;;;;;;47.05;24.00;;;9.40;99.90;;;;;;5057250;28;20458;-74
2021/03/23 12:14:43;;;;;;;49.95;24.60;;;9.50;99.90;;;;;;5071929;28;20031;-75
2021/03/23 12:17:11;;;;;;;44.60;24.42;;;9.50;99.90;;;;;;5071771;28;20496;-73
2021/03/23 12:19:49;;;;;;;51.60;25.42;;;9.70;99.90;;;;;;5070870;28;20078;-74
2021/03/23 12:22:16;;;;;;;57.97;26.40;;;9.80;99.90;;;;;;5075950;28;20020;-72
2021/03/23 12:24:43;;;;;;;55.15;25.98;;;9.80;99.90;;;;;;5086537;28;20024;-75
2021/03/23 12:27:09;;;;;;;47.10;25.35;;;9.80;99.90;;;;;;5082480;28;20231;-73
2021/03/23 12:29:39;;;;;;;45.75;24.73;;;9.90;99.90;;;;;;5058574;28;20025;-74
2021/03/23 12:32:11;;;;;;;54.25;25.92;;;9.90;99.90;;;;;;5059698;28;20028;-74
2021/03/23 12:34:37;;;;;;;50.65;26.13;;;10.00;99.90;;;;;;5071293;28;20072;-77
2021/03/23 12:37:03;;;;;;;45.90;25.92;;;10.00;99.90;;;;;;5071845;28;20051;-74
2021/03/23 12:39:29;;;;;;;57.53;27.90;;;10.00;99.90;;;;;;5070514;28;20060;-74
2021/03/23 12:41:54;;;;;;;58.15;27.13;;;10.00;99.90;;;;;;5069597;28;20024;-74
2021/03/23 12:44:21;;;;;;;56.45;29.23;;;10.00;99.90;;;;;;5059303;28;20123;-73
2021/03/23 12:46:47;;;;;;;55.42;28.48;;;9.90;99.90;;;;;;5065892;28;20548;-73
2021/03/23 12:49:13;;;;;;;56.05;28.38;;;9.90;99.90;;;;;;5069786;28;20391;-73
2021/03/23 12:51:41;;;;;;;53.40;27.75;;;10.00;99.90;;;;;;5068620;28;20115;-75
2021/03/23 12:54:39;;;;;;;50.63;29.42;;;10.20;99.90;;;;;;5070853;28;20091;-77
2021/03/23 12:57:16;;;;;;;52.03;28.08;;;10.20;99.90;;;;;;5068365;28;20166;-74
2021/03/23 12:59:43;;;;;;;54.10;27.90;;;10.20;99.90;;;;;;5069534;28;20093;-74
2021/03/23 13:02:12;;;;;;;52.13;26.42;;;10.20;99.90;;;;;;5068739;28;20044;-74